Mumbai, India

6:40 PM IST on July 29, 2016 (GMT +0530)
Chhatrapati Shivaji International | | Change Station

Elev 46 ft 19.10 °N, 72.86 °E | Updated 10 minutes ago

Light Rain
Light Rain
81 °F
Feels Like 88 °F
N
0
Wind Variable Wind from North

Today
High -- | Low -- °F
--% Chance of Precip.
Yesterday
High -- | Low -- °F
Precip. -- in
Pressure 29.65 in
Visibility 1.4 miles
Clouds Scattered Clouds 1000 ft
Scattered Clouds 1800 ft
Few 3000 ft
Overcast 8000 ft
Heat Index 88 °F
Dew Point 79 °F
Humidity 94%
Rainfall 0.00 in
Snow Depth Not available.
6:14 AM 7:15 PM
Waning Crescent, 22% visible
METAR VABB 291300Z 00000KT 2200 -RA SCT010 SCT018 FEW030CB OVC080 27/26 Q1004 TEMPO 1500 SHRA
Pressure 29.65 in
Visibility 1.4 miles
Clouds Scattered Clouds 1000 ft
Scattered Clouds 1800 ft
Few 3000 ft
Overcast 8000 ft
Heat Index 88 °F
Dew Point 79 °F
Humidity 94%
Rainfall 0.00 in
Snow Depth Not available.
6:14 AM 7:15 PM
Waning Crescent, 22% visible
METAR VABB 291300Z 00000KT 2200 -RA SCT010 SCT018 FEW030CB OVC080 27/26 Q1004 TEMPO 1500 SHRA

10-Day Weather Forecast

No radar image for this location.
×

Almanac

Astronomy

Jul. 29, 2016 Rise Set
Actual Time
Civil Twilight
Nautical Twilight
Astronomical Twilight
Moon
Length of Visible Light
Length of Day
Tomorrow will be .
, % of the Moon is Illuminated

Today's Extremes

Country Highs Country Lows

Community

WunderPhotos

Upload Photos

1,928,336 photos uploaded!

WunderBlog® & News

Nearby

Air Quality

  Air Quality AQ Index Pollutant
Not available.

Snow Depth

Station Depth Elevation

Earthquake Activity

City Distance Mag. Time & Date
Minimum magnitude displayed is 2.5.

Coastal Water Temperatures

Place Temperature

Stations

Nearby Weather Stations

Station Location Temp. Windchill Dew Point Humidity Wind Precip. Elev Updated Type